createdAt,value
2023-03-08T00:00:24.183Z,3
2023-03-08T00:01:33.874Z,3.6
2023-03-08T00:02:42.542Z,5.2
2023-03-08T00:03:51.264Z,3
2023-03-08T00:05:00.936Z,3.3
2023-03-08T00:06:09.522Z,2.7
2023-03-08T00:07:18.194Z,2.5
2023-03-08T00:08:27.893Z,5
2023-03-08T00:09:35.563Z,3
2023-03-08T00:10:46.260Z,4.3
2023-03-08T00:11:54.924Z,2.5
2023-03-08T00:13:03.597Z,4
2023-03-08T00:14:13.305Z,4.8
2023-03-08T00:15:21.963Z,4.2
2023-03-08T00:16:29.708Z,5.7
2023-03-08T00:17:39.300Z,3.6
2023-03-08T00:18:48.964Z,3.5
2023-03-08T00:19:56.643Z,5
2023-03-08T00:21:06.312Z,4.8
2023-03-08T00:22:15.991Z,4.7
2023-03-08T00:23:24.636Z,8.1
2023-03-08T00:24:34.397Z,2.8
2023-03-08T00:25:44.039Z,5.5
2023-03-08T00:26:53.737Z,2.7
2023-03-08T00:28:03.398Z,2.6
2023-03-08T00:29:12.183Z,2.9
2023-03-08T00:30:21.817Z,3.6
2023-03-08T00:31:31.586Z,2.7
2023-03-08T00:32:40.218Z,3.8
2023-03-08T00:33:48.879Z,3.1
2023-03-08T00:34:57.733Z,2.6
2023-03-08T00:36:07.472Z,3.5
2023-03-08T00:37:16.126Z,2
2023-03-08T00:38:25.809Z,3.3
2023-03-08T00:39:35.505Z,3.4
2023-03-08T00:40:45.315Z,3.3
2023-03-08T00:41:53.849Z,2.6
2023-03-08T00:43:02.536Z,2.2
2023-03-08T00:44:10.195Z,3.2
2023-03-08T00:45:19.892Z,3.9
2023-03-08T00:46:28.574Z,2.1
2023-03-08T00:47:38.231Z,3.1
2023-03-08T00:48:48.946Z,3.3
2023-03-08T00:49:58.630Z,3.8
2023-03-08T00:51:07.284Z,3.4
2023-03-08T00:52:17.006Z,4
2023-03-08T00:53:25.653Z,5.5
2023-03-08T00:54:35.317Z,4.3
2023-03-08T00:55:45.040Z,3.5
2023-03-08T00:56:52.721Z,4.1
2023-03-08T00:58:01.347Z,4
2023-03-08T00:59:11.020Z,6.2
2023-03-08T01:00:20.741Z,3
2023-03-08T01:01:30.401Z,4.8
2023-03-08T01:02:40.066Z,4.3
2023-03-08T01:03:49.782Z,4.6
2023-03-08T01:04:59.501Z,3.4
2023-03-08T01:06:08.176Z,2.7
2023-03-08T01:07:17.829Z,4.4
2023-03-08T01:08:26.534Z,2.7
2023-03-08T01:09:36.182Z,3.2
2023-03-08T01:10:44.871Z,3.8
2023-03-08T01:11:53.525Z,2.6
2023-03-08T01:13:03.228Z,3.2
2023-03-08T01:14:12.852Z,3.6
2023-03-08T01:15:20.541Z,3.9
2023-03-08T01:16:30.275Z,3.7
2023-03-08T01:17:39.940Z,2.3
2023-03-08T01:18:49.606Z,2.4
2023-03-08T01:19:58.253Z,3.6
2023-03-08T01:21:06.945Z,4.6
2023-03-08T01:22:16.611Z,2.6
2023-03-08T01:23:25.276Z,4.1
2023-03-08T01:24:32.928Z,2.9
2023-03-08T01:25:42.646Z,2.4
2023-03-08T01:26:52.332Z,2.1
2023-03-08T01:28:00.990Z,3.1
2023-03-08T01:29:09.728Z,4
2023-03-08T01:30:17.343Z,2.2
2023-03-08T01:31:27.067Z,3.3
2023-03-08T01:32:35.728Z,4.8
2023-03-08T01:33:43.362Z,3.7
2023-03-08T01:34:52.024Z,2.5
2023-03-08T01:36:01.823Z,5.2
2023-03-08T01:37:11.415Z,4.4
2023-03-08T01:38:20.065Z,4.1
2023-03-08T01:39:27.720Z,2.6
2023-03-08T01:40:37.394Z,3
2023-03-08T01:41:47.105Z,1.9
2023-03-08T01:42:55.763Z,3.8
2023-03-08T01:44:04.435Z,5.2
2023-03-08T01:45:14.152Z,4.1
2023-03-08T01:46:22.813Z,2.9
2023-03-08T01:47:31.469Z,4
2023-03-08T01:48:40.147Z,4.3
2023-03-08T01:49:49.819Z,2.4
2023-03-08T01:50:59.510Z,3
2023-03-08T01:52:07.224Z,3.4
2023-03-08T01:53:16.828Z,4.6
2023-03-08T01:54:26.478Z,5.2
2023-03-08T01:55:35.163Z,5.2
2023-03-08T01:56:42.868Z,11.3
2023-03-08T01:57:51.552Z,3.6
2023-03-08T01:59:01.217Z,4
2023-03-08T02:00:09.886Z,3.5
2023-03-08T02:01:17.638Z,3.9
2023-03-08T02:02:28.537Z,3.2
2023-03-08T02:03:36.884Z,3.1
2023-03-08T02:04:46.538Z,3
2023-03-08T02:05:55.356Z,4
2023-03-08T02:07:03.977Z,4.3
2023-03-08T02:08:12.636Z,3.8
2023-03-08T02:09:21.311Z,6.6
2023-03-08T02:10:30.053Z,4.1
2023-03-08T02:11:39.724Z,4
2023-03-08T02:12:48.405Z,5.2
2023-03-08T02:13:56.057Z,3.3
2023-03-08T02:15:05.768Z,6.3
2023-03-08T02:16:15.437Z,3.6
2023-03-08T02:17:23.154Z,4.7
2023-03-08T02:18:32.805Z,1.8
2023-03-08T02:19:41.462Z,3.7
2023-03-08T02:20:51.155Z,1.6
2023-03-08T02:22:00.149Z,3.5
2023-03-08T02:23:08.829Z,3.4
2023-03-08T02:24:18.495Z,2.8
2023-03-08T02:25:28.176Z,3.3
2023-03-08T02:26:36.872Z,4.2
2023-03-08T02:27:46.551Z,3.2
2023-03-08T02:28:55.262Z,3.3
2023-03-08T02:30:04.910Z,3.8
2023-03-08T02:31:13.622Z,3.3
2023-03-08T02:32:22.360Z,2.7
2023-03-08T02:33:31.993Z,3.5
2023-03-08T02:34:41.660Z,3.3
2023-03-08T02:35:51.424Z,2.6
2023-03-08T02:37:01.194Z,4.7
2023-03-08T02:38:08.942Z,3.9
2023-03-08T02:39:17.619Z,4.3
2023-03-08T02:40:27.291Z,2.1
2023-03-08T02:41:35.000Z,4
2023-03-08T02:42:43.683Z,3.8
2023-03-08T02:43:53.345Z,2.4
2023-03-08T02:45:02.036Z,3
2023-03-08T02:46:11.690Z,3.5
2023-03-08T02:47:21.401Z,2.9
2023-03-08T02:48:30.127Z,2.3
2023-03-08T02:49:38.827Z,3
2023-03-08T02:50:47.461Z,2.7
2023-03-08T02:51:57.162Z,3
2023-03-08T02:53:05.836Z,3.3
2023-03-08T02:54:16.978Z,3.4
2023-03-08T02:55:25.159Z,2.7
2023-03-08T02:56:33.848Z,4.7
2023-03-08T02:57:42.541Z,3.5
2023-03-08T02:58:51.215Z,3.5
2023-03-08T02:59:59.939Z,3.1
2023-03-08T03:01:09.680Z,2.3
2023-03-08T03:02:18.314Z,3.5
2023-03-08T03:03:27.015Z,2.3
2023-03-08T03:04:36.683Z,3
2023-03-08T03:05:46.378Z,3.6
2023-03-08T03:06:55.056Z,6.3
2023-03-08T03:08:04.726Z,4.4
2023-03-08T03:09:14.403Z,3.4
2023-03-08T03:10:24.084Z,6.2
2023-03-08T03:11:32.742Z,5.7
2023-03-08T03:12:40.419Z,3.5
2023-03-08T03:14:04.923Z,3.8
2023-03-08T03:15:15.524Z,3
2023-03-08T03:16:24.180Z,3.5
2023-03-08T03:17:32.848Z,3.8
2023-03-08T03:18:42.514Z,3.3
2023-03-08T03:19:52.215Z,5.9
2023-03-08T03:21:00.914Z,4.6
2023-03-08T03:22:10.610Z,2.9
2023-03-08T03:23:19.313Z,3.9
2023-03-08T03:24:27.994Z,4.4
2023-03-08T03:25:37.731Z,4.5
2023-03-08T03:26:45.435Z,3.8
2023-03-08T03:27:55.129Z,2
2023-03-08T03:29:03.805Z,3.9
2023-03-08T03:30:13.472Z,3.7
2023-03-08T03:35:48.859Z,3.9
2023-03-08T03:36:58.521Z,3.2
2023-03-08T03:38:08.267Z,5.9
2023-03-08T03:39:17.941Z,2.5
2023-03-08T03:40:26.601Z,2.8
2023-03-08T03:41:35.276Z,4.7
2023-03-08T03:42:43.965Z,3.8
2023-03-08T03:43:52.616Z,5.7
2023-03-08T03:45:02.377Z,3.1
2023-03-08T03:46:11.102Z,4.5
2023-03-08T03:47:20.758Z,4.2
2023-03-08T03:48:30.448Z,6.7
2023-03-08T03:49:39.134Z,3.9
2023-03-08T03:50:48.821Z,4.3
2023-03-08T03:51:57.493Z,4.9
2023-03-08T03:53:06.212Z,3.8
2023-03-08T03:54:15.867Z,3.7
2023-03-08T03:55:25.535Z,2.4
2023-03-08T03:56:34.210Z,5.6
2023-03-08T03:57:42.901Z,6.3
2023-03-08T03:58:50.560Z,6.1
2023-03-08T04:00:00.274Z,4.9
2023-03-08T04:01:08.941Z,3.3
2023-03-08T04:02:16.628Z,5.6
2023-03-08T04:03:26.463Z,2.7
2023-03-08T04:04:34.992Z,3.7
2023-03-08T04:05:43.682Z,5.2
2023-03-08T04:06:53.350Z,4.7
2023-03-08T04:08:02.058Z,3.2
2023-03-08T04:09:11.758Z,3.9
2023-03-08T04:10:21.471Z,3.8
2023-03-08T04:11:29.149Z,4.9
2023-03-08T04:12:38.814Z,4.9
2023-03-08T04:13:47.520Z,4.9
2023-03-08T04:14:57.209Z,5
2023-03-08T04:16:06.917Z,5.6
2023-03-08T04:17:16.565Z,3.7
2023-03-08T04:18:26.265Z,5.5
2023-03-08T04:19:34.934Z,6.6
2023-03-08T04:20:44.594Z,5.2
2023-03-08T04:21:54.282Z,5.7
2023-03-08T04:23:02.975Z,4.4
2023-03-08T04:24:12.664Z,4.6
2023-03-08T04:25:22.514Z,5.1
2023-03-08T04:26:32.052Z,3.6
2023-03-08T04:27:40.740Z,4.6
2023-03-08T04:28:48.439Z,4.9
2023-03-08T04:29:59.136Z,3.1
2023-03-08T04:31:08.861Z,5.3
2023-03-08T04:32:17.471Z,3.8
2023-03-08T04:33:26.159Z,4.1
2023-03-08T04:34:35.844Z,5.2
2023-03-08T04:35:44.547Z,4
2023-03-08T04:36:53.185Z,5.2
2023-03-08T04:38:01.866Z,3.5
2023-03-08T04:39:11.568Z,6.6
2023-03-08T04:40:21.255Z,3.5
2023-03-08T04:41:30.009Z,6.8
2023-03-08T04:42:39.604Z,4.7
2023-03-08T04:43:49.290Z,7.9
2023-03-08T04:44:57.992Z,5
2023-03-08T04:46:06.677Z,5.8
2023-03-08T04:47:15.384Z,4
2023-03-08T04:48:26.500Z,5
2023-03-08T04:49:34.722Z,4.3
2023-03-08T04:50:43.441Z,4.3
2023-03-08T04:51:52.093Z,3.8
2023-03-08T04:53:01.783Z,6.5
2023-03-08T04:54:11.475Z,5.7
2023-03-08T04:55:20.152Z,3.9
2023-03-08T04:56:27.859Z,3.7
2023-03-08T04:57:37.584Z,6.6
2023-03-08T04:58:47.227Z,4.3
2023-03-08T04:59:56.912Z,7.2
2023-03-08T05:01:06.593Z,3.1
2023-03-08T05:02:15.366Z,6.4
2023-03-08T05:03:23.941Z,5.9
2023-03-08T05:04:33.693Z,5.1
2023-03-08T05:05:41.321Z,4.8
2023-03-08T05:06:51.025Z,4.4
2023-03-08T05:07:59.742Z,3.6
2023-03-08T05:09:07.422Z,4
2023-03-08T05:10:17.110Z,3.4
2023-03-08T05:11:25.806Z,7
2023-03-08T05:12:35.493Z,4
2023-03-08T05:13:44.186Z,4.3
2023-03-08T05:14:51.856Z,4.8
2023-03-08T05:16:01.636Z,5.4
2023-03-08T05:17:10.238Z,4.3
2023-03-08T05:18:17.937Z,4
2023-03-08T05:19:27.619Z,5.7
2023-03-08T05:20:37.333Z,4.6
2023-03-08T05:21:47.039Z,6
2023-03-08T05:22:59.198Z,4.9
2023-03-08T05:24:04.384Z,10.8
2023-03-08T05:25:14.110Z,3.6
2023-03-08T05:26:23.786Z,2.7
2023-03-08T05:27:33.479Z,5.5
2023-03-08T05:28:43.144Z,6.6
2023-03-08T05:29:52.917Z,4.9
2023-03-08T05:31:02.577Z,6.1
2023-03-08T05:32:11.247Z,5.1
2023-03-08T05:33:18.922Z,4.3
2023-03-08T05:34:28.588Z,4.1
2023-03-08T05:35:37.344Z,5.2
2023-03-08T05:36:44.989Z,5.9
2023-03-08T05:37:54.659Z,7.9
2023-03-08T05:39:03.330Z,6.1
2023-03-08T05:40:12.038Z,5.3
2023-03-08T05:41:20.685Z,3.2
2023-03-08T05:42:30.392Z,4
2023-03-08T05:43:40.083Z,7.3
2023-03-08T05:44:49.810Z,4.7
2023-03-08T05:45:58.644Z,4.5
2023-03-08T05:47:08.432Z,6.5
2023-03-08T05:48:18.944Z,4.4
2023-03-08T05:49:28.612Z,5.2
2023-03-08T05:50:38.312Z,7
2023-03-08T05:51:46.971Z,5.6
2023-03-08T05:52:56.636Z,5.2
2023-03-08T05:54:05.298Z,3.4
2023-03-08T05:55:13.998Z,6.8
2023-03-08T05:56:23.656Z,4
2023-03-08T05:57:33.317Z,3
2023-03-08T05:58:43.405Z,4.3
2023-03-08T05:59:52.649Z,5.5
2023-03-08T06:01:01.341Z,4.7
2023-03-08T06:02:11.044Z,5.4
2023-03-08T06:03:19.673Z,6
2023-03-08T06:04:28.342Z,6.7
2023-03-08T06:05:38.056Z,4.9
2023-03-08T06:06:46.722Z,3.5
2023-03-08T06:07:55.421Z,4.4
2023-03-08T06:09:04.087Z,4.2
2023-03-08T06:10:11.804Z,4.7
2023-03-08T06:11:21.507Z,5
2023-03-08T06:12:30.166Z,3.9
2023-03-08T06:13:38.829Z,7.3
2023-03-08T06:14:47.563Z,5.3
2023-03-08T06:15:57.289Z,4.7
2023-03-08T06:17:06.990Z,5.5
2023-03-08T06:18:15.626Z,9.5
2023-03-08T06:19:24.302Z,6.2
2023-03-08T06:20:33.004Z,5.2
2023-03-08T06:21:40.647Z,6.6
2023-03-08T06:22:50.316Z,5.2
2023-03-08T06:23:59.986Z,6.6
2023-03-08T06:25:07.717Z,6.5
2023-03-08T06:26:17.386Z,6.4
2023-03-08T06:27:27.039Z,7.6
2023-03-08T06:28:35.707Z,5.9
2023-03-08T06:29:45.376Z,6.3
2023-03-08T06:30:54.073Z,5.5
2023-03-08T06:32:03.734Z,6.7
2023-03-08T06:33:12.425Z,4.6
2023-03-08T06:34:22.092Z,6.6
2023-03-08T06:35:31.884Z,6.7
2023-03-08T06:36:40.479Z,5.5
2023-03-08T06:37:49.138Z,2.8
2023-03-08T06:38:58.832Z,5.3
2023-03-08T06:40:06.476Z,6.2
2023-03-08T06:41:16.182Z,4.1
2023-03-08T06:42:38.461Z,6.1
2023-03-08T06:43:33.832Z,4.5
2023-03-08T06:44:43.566Z,6.3
2023-03-08T06:45:53.267Z,4.1
2023-03-08T06:47:01.894Z,5
2023-03-08T06:48:10.558Z,5.3
2023-03-08T06:49:19.240Z,4.7
2023-03-08T06:50:28.949Z,5.6
2023-03-08T06:51:38.585Z,6.8
2023-03-08T06:52:47.300Z,6.1
2023-03-08T06:53:56.999Z,4.9
2023-03-08T06:55:05.697Z,4.7
2023-03-08T06:56:14.395Z,9.1
2023-03-08T06:57:24.070Z,6.1
2023-03-08T06:58:32.755Z,6.1
2023-03-08T06:59:42.464Z,4.3
2023-03-08T07:00:51.171Z,4.5
2023-03-08T07:01:59.822Z,5
2023-03-08T07:03:10.506Z,4.6
2023-03-08T07:04:20.348Z,6.2
2023-03-08T07:05:28.978Z,6.4
2023-03-08T07:06:38.649Z,8.9
2023-03-08T07:07:46.306Z,5.8
2023-03-08T07:08:55.981Z,6.8
2023-03-08T07:10:05.656Z,7
2023-03-08T07:11:13.339Z,4.9
2023-03-08T07:12:24.014Z,5.7
2023-03-08T07:13:32.675Z,7.9
2023-03-08T07:14:42.339Z,4.8
2023-03-08T07:15:52.107Z,6.1
2023-03-08T07:17:00.736Z,7.9
2023-03-08T07:18:10.433Z,5.4
2023-03-08T07:19:21.078Z,9.2
2023-03-08T07:20:30.774Z,9.5
2023-03-08T07:21:40.479Z,5.8
2023-03-08T07:22:49.114Z,5.9
2023-03-08T07:23:58.785Z,6.4
2023-03-08T07:25:07.444Z,6.1
2023-03-08T07:26:16.174Z,9.6
2023-03-08T07:27:24.834Z,9.4
2023-03-08T07:28:34.480Z,7.1
2023-03-08T07:29:43.146Z,5.7
2023-03-08T07:30:52.904Z,4.3
2023-03-08T07:32:01.610Z,6.2
2023-03-08T07:33:10.278Z,6.7
2023-03-08T07:34:19.870Z,4.4
2023-03-08T07:35:27.605Z,6.6
2023-03-08T07:36:37.298Z,5.6
2023-03-08T07:37:46.106Z,5.6
2023-03-08T07:38:55.642Z,7.6
2023-03-08T07:40:05.349Z,7.1
2023-03-08T07:41:14.001Z,8.9
2023-03-08T07:42:22.747Z,9.8
2023-03-08T07:43:31.414Z,7
2023-03-08T07:44:41.086Z,7.1
2023-03-08T07:45:50.765Z,8.9
2023-03-08T07:46:59.438Z,5.9
2023-03-08T07:48:07.128Z,6.1
2023-03-08T07:49:16.799Z,5.5
2023-03-08T07:50:25.499Z,6.3
2023-03-08T07:51:34.187Z,6.5
2023-03-08T07:52:44.833Z,5.2
2023-03-08T07:53:53.522Z,4.5
2023-03-08T07:55:03.170Z,4.5
2023-03-08T07:56:11.848Z,4.4
2023-03-08T07:57:21.554Z,4.4
2023-03-08T07:58:30.222Z,5.3
2023-03-08T07:59:38.883Z,4.9
2023-03-08T08:00:47.595Z,5.2
2023-03-08T08:01:56.251Z,6.5
2023-03-08T08:03:03.980Z,4.7
2023-03-08T08:04:13.670Z,6.1
2023-03-08T08:05:22.408Z,6.8
2023-03-08T08:06:30.003Z,5
2023-03-08T08:07:39.681Z,3.2
2023-03-08T08:08:49.356Z,3.9
2023-03-08T08:09:59.061Z,4
2023-03-08T08:11:08.733Z,6.3
2023-03-08T08:12:18.423Z,4.5
2023-03-08T08:13:27.171Z,6.7
2023-03-08T08:14:35.818Z,4.7
2023-03-08T08:15:45.676Z,5.5
2023-03-08T08:16:54.311Z,5.8
2023-03-08T08:18:03.984Z,5.4
2023-03-08T08:19:13.658Z,4.9
2023-03-08T08:20:23.341Z,3.9
2023-03-08T08:21:33.055Z,4.6
2023-03-08T08:22:40.760Z,5.9
2023-03-08T08:23:50.426Z,2.9
2023-03-08T08:25:00.145Z,5
2023-03-08T08:26:08.842Z,10.5
2023-03-08T08:27:17.466Z,4.6
2023-03-08T08:28:27.144Z,5
2023-03-08T08:29:35.826Z,5
2023-03-08T08:30:45.540Z,5.9
2023-03-08T08:31:55.189Z,3.7
2023-03-08T08:33:03.864Z,6.2
2023-03-08T08:34:13.593Z,7.2
2023-03-08T08:35:28.894Z,3.8
2023-03-08T08:36:32.980Z,4.6
2023-03-08T08:37:42.640Z,3.3
2023-03-08T08:38:51.357Z,2.4
2023-03-08T08:40:01.031Z,2.4
2023-03-08T08:41:09.698Z,3.7
2023-03-08T08:42:19.412Z,3
2023-03-08T08:43:29.059Z,3.3
2023-03-08T08:44:37.725Z,2.2
2023-03-08T08:45:47.491Z,3
2023-03-08T08:46:57.101Z,3.4
2023-03-08T08:48:05.751Z,3.8
2023-03-08T08:49:15.407Z,3.3
2023-03-08T08:50:25.119Z,3.1
2023-03-08T08:51:33.801Z,2
2023-03-08T08:52:43.508Z,2.8
2023-03-08T08:53:52.126Z,2.8
2023-03-08T08:54:59.769Z,3.7
2023-03-08T08:56:17.037Z,3.2
2023-03-08T08:57:20.103Z,3
2023-03-08T08:58:28.794Z,5.4
2023-03-08T08:59:38.447Z,3.2
2023-03-08T09:00:47.105Z,2.6
2023-03-08T09:01:56.811Z,2.6
2023-03-08T09:03:05.453Z,2.8
2023-03-08T09:04:14.330Z,3.4
2023-03-08T09:05:23.969Z,3
2023-03-08T09:06:32.601Z,4.7
2023-03-08T09:07:43.277Z,4.2
2023-03-08T09:08:52.961Z,2.3
2023-03-08T09:10:02.638Z,2.6
2023-03-08T09:11:12.365Z,3.6
2023-03-08T09:12:21.211Z,3.4
2023-03-08T09:13:30.753Z,2.7
2023-03-08T09:14:40.447Z,2.6
2023-03-08T09:15:50.076Z,5
2023-03-08T09:16:59.800Z,3.3
2023-03-08T09:18:08.527Z,3.3
2023-03-08T09:19:16.268Z,4.4
2023-03-08T09:20:25.829Z,4.5
2023-03-08T09:21:34.508Z,4
2023-03-08T09:22:43.189Z,2.9
2023-03-08T09:23:52.861Z,4.1
2023-03-08T09:25:01.521Z,4.5
2023-03-08T09:26:10.196Z,5.2
2023-03-08T09:27:18.889Z,7.5
2023-03-08T09:28:26.556Z,4.2
2023-03-08T09:29:36.220Z,2.4
2023-03-08T09:30:45.308Z,4
2023-03-08T09:31:54.850Z,3.2
2023-03-08T09:33:05.304Z,3
2023-03-08T09:34:13.978Z,5.2
2023-03-08T09:35:23.681Z,4.2
2023-03-08T09:36:33.343Z,4.7
2023-03-08T09:37:43.070Z,8.2
2023-03-08T09:38:52.769Z,5.9
2023-03-08T09:40:01.435Z,5.2
2023-03-08T09:41:10.153Z,3.8
2023-03-08T09:42:19.950Z,5
2023-03-08T09:43:28.564Z,5.1
2023-03-08T09:44:38.237Z,4
2023-03-08T09:45:47.977Z,3.3
2023-03-08T09:46:55.780Z,6.9
2023-03-08T09:48:05.595Z,5
2023-03-08T09:49:15.143Z,4.4
2023-03-08T09:50:22.814Z,4.1
2023-03-08T09:51:32.464Z,3.9
2023-03-08T09:52:41.154Z,7.8
2023-03-08T09:53:50.822Z,3.7
2023-03-08T09:54:59.525Z,3.1
2023-03-08T09:56:09.185Z,4.4
2023-03-08T09:57:18.924Z,5.3
2023-03-08T09:58:28.589Z,3.3
2023-03-08T09:59:38.220Z,4.2
2023-03-08T10:00:48.946Z,3.4
2023-03-08T10:01:58.651Z,3.2
2023-03-08T10:03:07.357Z,2.6
2023-03-08T10:04:16.012Z,4.2
2023-03-08T10:05:23.609Z,4.3
2023-03-08T10:06:33.272Z,4.3
2023-03-08T10:07:41.987Z,5.7
2023-03-08T10:08:51.679Z,3.8
2023-03-08T10:10:00.342Z,5
2023-03-08T10:11:08.036Z,2.3
2023-03-08T10:12:17.792Z,5.4
2023-03-08T10:13:27.492Z,4.8
2023-03-08T10:14:37.111Z,3.5
2023-03-08T10:15:45.768Z,4.7
2023-03-08T10:16:54.497Z,5.3
2023-03-08T10:18:04.277Z,5.2
2023-03-08T10:19:13.824Z,3
2023-03-08T10:20:22.501Z,4.6
2023-03-08T10:21:32.189Z,3.4
2023-03-08T10:22:40.869Z,4.5
2023-03-08T10:23:49.550Z,2.6
2023-03-08T10:24:59.218Z,3.4
2023-03-08T10:26:06.872Z,4.2
2023-03-08T10:27:16.596Z,2.5
2023-03-08T10:28:25.260Z,5.1
2023-03-08T10:29:34.927Z,4.4
2023-03-08T10:30:44.668Z,3.7
2023-03-08T10:31:53.251Z,4.6
2023-03-08T10:33:02.962Z,5.3
2023-03-08T10:34:11.655Z,4.9
2023-03-08T10:35:20.297Z,4.8
2023-03-08T10:36:30.002Z,4.4
2023-03-08T10:37:39.741Z,5.9
2023-03-08T10:38:48.402Z,3.7
2023-03-08T10:39:58.046Z,3.2
2023-03-08T10:41:07.708Z,5.4
2023-03-08T10:42:17.502Z,5.9
2023-03-08T10:43:26.052Z,4.6
2023-03-08T10:44:35.713Z,4.2
2023-03-08T10:45:45.383Z,4
2023-03-08T10:46:55.065Z,2.8
2023-03-08T10:48:04.744Z,4.6
2023-03-08T10:49:14.438Z,3.4
2023-03-08T10:50:24.750Z,2.9
2023-03-08T10:51:34.478Z,3.5
2023-03-08T10:52:43.166Z,4.4
2023-03-08T10:53:51.843Z,4.2
2023-03-08T10:55:01.517Z,3.2
2023-03-08T10:56:10.182Z,4.7
2023-03-08T10:57:16.806Z,5
2023-03-08T10:58:26.484Z,2.5
2023-03-08T10:59:35.186Z,3.7
2023-03-08T11:00:43.835Z,3.4
2023-03-08T11:01:52.593Z,6
2023-03-08T11:03:00.264Z,3.3
2023-03-08T11:04:09.954Z,4.3
2023-03-08T11:05:19.650Z,2.5
2023-03-08T11:06:29.371Z,2.9
2023-03-08T11:07:39.055Z,4.8
2023-03-08T11:08:48.736Z,2.7
2023-03-08T11:09:58.392Z,2.9
2023-03-08T11:11:07.112Z,5.3
2023-03-08T11:12:15.764Z,2.5
2023-03-08T11:13:25.447Z,4.3
2023-03-08T11:14:34.157Z,2.6
2023-03-08T11:15:42.782Z,3.3
2023-03-08T11:16:52.480Z,2.4
2023-03-08T11:18:01.176Z,2.7
2023-03-08T11:19:09.859Z,6.4
2023-03-08T11:20:18.507Z,2.8
2023-03-08T11:21:27.186Z,3.4
2023-03-08T11:22:36.874Z,3.5
2023-03-08T11:23:46.556Z,2.2
2023-03-08T11:24:55.215Z,3.1
2023-03-08T11:26:04.908Z,3.7
2023-03-08T11:27:13.619Z,2.9
2023-03-08T11:28:22.302Z,3.9
2023-03-08T11:29:30.975Z,2.8
2023-03-08T11:30:39.633Z,2.3
2023-03-08T11:31:49.326Z,2.3
2023-03-08T11:32:59.137Z,2.7
2023-03-08T11:34:08.729Z,2.8
2023-03-08T11:35:18.350Z,2.7
2023-03-08T11:36:28.011Z,3.7
2023-03-08T11:37:36.722Z,3.1
2023-03-08T11:38:46.376Z,2.8
2023-03-08T11:39:55.034Z,2.5
2023-03-08T11:41:04.705Z,2.6
2023-03-08T11:42:14.364Z,2.1
2023-03-08T11:43:22.076Z,2.7
2023-03-08T11:44:31.748Z,2.1
2023-03-08T11:45:40.425Z,3.8
2023-03-08T11:46:50.117Z,2.1
2023-03-08T11:47:58.760Z,4.5
2023-03-08T11:49:07.475Z,2.6
2023-03-08T11:50:17.136Z,4.6
2023-03-08T11:51:25.791Z,2.1
2023-03-08T11:52:34.464Z,2.4
2023-03-08T11:53:44.241Z,1.5
2023-03-08T11:54:53.877Z,5.5
2023-03-08T11:56:02.486Z,4.4
2023-03-08T11:57:12.227Z,3.9
2023-03-08T11:58:20.967Z,3.9
2023-03-08T11:59:30.642Z,3.8
2023-03-08T12:00:38.310Z,2.3
2023-03-08T12:01:47.982Z,2.2
2023-03-08T12:02:57.697Z,1.7
2023-03-08T12:04:07.394Z,2.6
2023-03-08T12:05:16.023Z,5
2023-03-08T12:06:28.991Z,4.7
2023-03-08T12:07:36.280Z,1.3
2023-03-08T12:08:45.034Z,2.6
2023-03-08T12:09:53.649Z,3
2023-03-08T12:11:04.280Z,3.5
2023-03-08T12:12:13.070Z,3.4
2023-03-08T12:13:21.653Z,5.1
2023-03-08T12:14:31.304Z,3.3
2023-03-08T12:15:41.057Z,3
2023-03-08T12:16:50.830Z,2.4
2023-03-08T12:18:00.375Z,3.7
2023-03-08T12:19:08.033Z,2.5
2023-03-08T12:20:17.673Z,2.2
2023-03-08T12:21:26.362Z,2.5
2023-03-08T12:22:35.058Z,1.5
2023-03-08T12:23:44.845Z,2.3
2023-03-08T12:24:54.496Z,3.2
2023-03-08T12:26:04.205Z,2
2023-03-08T12:27:13.854Z,1.7
2023-03-08T12:28:22.545Z,1.5
2023-03-08T12:29:32.295Z,3
2023-03-08T12:30:40.980Z,1.9
2023-03-08T12:31:48.738Z,2.3
2023-03-08T12:32:58.579Z,2
2023-03-08T12:34:09.029Z,1.5
2023-03-08T12:35:17.764Z,2.4
2023-03-08T12:36:26.620Z,4.2
2023-03-08T12:37:35.204Z,4.4
2023-03-08T12:38:44.888Z,1.9
2023-03-08T12:39:53.497Z,1.4
2023-03-08T12:41:03.174Z,3.2
2023-03-08T12:42:12.948Z,1.1
2023-03-08T12:43:22.518Z,3.2
2023-03-08T12:44:32.210Z,3.9
2023-03-08T12:45:40.966Z,1
2023-03-08T12:47:02.088Z,3.1
2023-03-08T12:48:02.221Z,1.9
2023-03-08T12:49:11.888Z,3.6
2023-03-08T12:50:21.570Z,2
2023-03-08T12:51:31.269Z,2.7
2023-03-08T12:52:40.024Z,1.5
2023-03-08T12:53:48.706Z,1.6
2023-03-08T12:54:58.396Z,2.5
2023-03-08T12:56:08.093Z,2.3
2023-03-08T12:57:17.811Z,3.4
2023-03-08T12:58:27.509Z,3.3
2023-03-08T12:59:36.335Z,2.1
2023-03-08T13:00:45.045Z,2.9
2023-03-08T13:01:53.668Z,2.1
2023-03-08T13:03:03.351Z,1.7
2023-03-08T13:04:12.128Z,2.6
2023-03-08T13:05:20.737Z,1.6
2023-03-08T13:06:30.420Z,1.6
2023-03-08T13:07:39.134Z,1.2
2023-03-08T13:08:47.812Z,3.2
2023-03-08T13:09:57.518Z,1.7
2023-03-08T13:11:07.174Z,1.7
2023-03-08T13:12:16.845Z,2.2
2023-03-08T13:13:38.480Z,1.5
2023-03-08T13:14:36.184Z,6.1
2023-03-08T13:15:45.878Z,8.6
2023-03-08T13:16:54.622Z,4.2
2023-03-08T13:18:02.220Z,1.6
2023-03-08T13:19:11.985Z,2.3
2023-03-08T13:20:20.610Z,2.5
2023-03-08T13:21:29.324Z,2.3
2023-03-08T13:22:38.061Z,1.2
2023-03-08T13:23:46.763Z,1.1
2023-03-08T13:24:56.833Z,2.1
2023-03-08T13:26:05.095Z,1.2
2023-03-08T13:27:13.795Z,0.9
2023-03-08T13:28:23.443Z,1.7
2023-03-08T13:29:33.136Z,1.1
2023-03-08T13:30:41.838Z,2.6
2023-03-08T13:31:51.521Z,1.4
2023-03-08T13:32:59.176Z,0.6
2023-03-08T13:34:08.854Z,0.5
2023-03-08T13:35:17.521Z,1
2023-03-08T13:36:25.187Z,0.8
2023-03-08T13:37:34.894Z,0.9
2023-03-08T13:38:43.584Z,0.5
2023-03-08T13:39:53.287Z,0.2
2023-03-08T13:41:01.948Z,0.6
2023-03-08T13:42:10.696Z,1.7
2023-03-08T13:43:20.289Z,0.4
2023-03-08T13:44:28.954Z,0.6
2023-03-08T13:45:38.760Z,0.6
2023-03-08T13:46:48.266Z,0.3
2023-03-08T13:47:57.950Z,0.6
2023-03-08T13:49:06.609Z,0.5
2023-03-08T13:50:15.362Z,0.6
2023-03-08T13:51:23.037Z,0.3
2023-03-08T13:52:32.721Z,0.2
2023-03-08T13:53:41.380Z,0.3
2023-03-08T13:54:49.044Z,0.4
2023-03-08T13:55:58.710Z,0.2
2023-03-08T13:57:07.444Z,0.9
2023-03-08T13:58:16.134Z,0.4
2023-03-08T13:59:24.841Z,0.3
2023-03-08T14:00:33.583Z,0.3
2023-03-08T14:01:43.254Z,0.3
2023-03-08T14:02:52.889Z,0.3
2023-03-08T14:04:01.647Z,0.6
2023-03-08T14:05:11.292Z,1.2
2023-03-08T14:06:21.020Z,0.2
2023-03-08T14:07:30.713Z,0.4
2023-03-08T14:08:39.322Z,0.2
2023-03-08T14:09:48.995Z,0.3
2023-03-08T14:10:57.686Z,0.2
2023-03-08T14:12:07.363Z,0.1
2023-03-08T14:13:17.008Z,0.2
2023-03-08T14:14:25.768Z,3.5
2023-03-08T14:15:34.545Z,0.4
2023-03-08T14:16:44.030Z,0.6
2023-03-08T14:17:52.819Z,0.3
2023-03-08T14:19:01.387Z,0.3
2023-03-08T14:20:10.111Z,0.3
2023-03-08T14:21:17.796Z,0.3
2023-03-08T14:22:38.455Z,0.2
2023-03-08T14:23:38.137Z,0.3
2023-03-08T14:24:45.783Z,0.2
2023-03-08T14:25:55.457Z,1.3
2023-03-08T14:27:04.141Z,0.4
2023-03-08T14:28:13.825Z,0.3
2023-03-08T14:29:22.545Z,0.3
2023-03-08T14:30:30.146Z,0.4
2023-03-08T14:31:39.930Z,0.3
2023-03-08T14:32:49.493Z,0.3
2023-03-08T14:33:58.199Z,0.4
2023-03-08T14:35:07.861Z,0.9
2023-03-08T14:36:16.537Z,0.2
2023-03-08T14:37:25.200Z,3
2023-03-08T14:38:33.871Z,0.6
2023-03-08T14:39:42.551Z,0.5
2023-03-08T14:40:51.254Z,0.2
2023-03-08T14:41:59.917Z,0.2
2023-03-08T14:43:07.635Z,0.3
2023-03-08T14:44:17.338Z,0.7
2023-03-08T14:45:27.037Z,0.5
2023-03-08T14:46:35.767Z,0.5
2023-03-08T14:47:45.466Z,0.5
2023-03-08T14:48:54.210Z,0.7
2023-03-08T14:50:01.912Z,0.6
2023-03-08T14:51:11.588Z,0.5
2023-03-08T14:52:20.244Z,0.4
2023-03-08T14:53:29.956Z,0.5
2023-03-08T14:54:38.606Z,1.2
2023-03-08T14:55:46.275Z,0.5
2023-03-08T14:56:53.928Z,0.3
2023-03-08T14:58:02.569Z,0.4
2023-03-08T14:59:21.756Z,0.7
2023-03-08T15:00:22.894Z,0.3
2023-03-08T15:01:30.613Z,0.6
2023-03-08T15:02:39.224Z,1.2
2023-03-08T15:03:48.991Z,0.3
2023-03-08T15:04:58.594Z,0.3
2023-03-08T15:06:08.321Z,0.3
2023-03-08T15:07:17.951Z,0.5
2023-03-08T15:08:27.626Z,0.3
2023-03-08T15:09:37.312Z,0.6
2023-03-08T15:10:45.990Z,0.3
2023-03-08T15:11:55.651Z,1
2023-03-08T15:13:05.326Z,0.3
2023-03-08T15:14:15.003Z,0.5
2023-03-08T15:15:23.663Z,0.6
2023-03-08T15:16:33.397Z,0.6
2023-03-08T15:17:43.809Z,0.4
2023-03-08T15:18:52.450Z,0.5
2023-03-08T15:20:02.118Z,0.8
2023-03-08T15:21:11.844Z,0.5
2023-03-08T15:22:21.477Z,0.3
2023-03-08T15:23:31.158Z,0.3
2023-03-08T15:24:38.806Z,0.3
2023-03-08T15:25:47.509Z,0.2
2023-03-08T15:26:57.171Z,0.2
2023-03-08T15:28:06.822Z,0.2
2023-03-08T15:29:15.496Z,0.3
2023-03-08T15:30:25.180Z,0.4
2023-03-08T15:31:34.966Z,0.3
2023-03-08T15:32:42.566Z,0.3
2023-03-08T15:33:51.196Z,0.6
2023-03-08T15:34:58.873Z,0.6
2023-03-08T15:36:08.614Z,0.7
2023-03-08T15:37:18.296Z,0.6
2023-03-08T15:38:26.859Z,0.3
2023-03-08T15:39:36.521Z,0.6
2023-03-08T15:40:45.210Z,0.6
2023-03-08T15:41:54.880Z,0.7
2023-03-08T15:43:03.534Z,0.8
2023-03-08T15:44:11.196Z,0.8
2023-03-08T15:45:20.860Z,0.7
2023-03-08T15:46:29.596Z,0.7
2023-03-08T15:47:38.224Z,0.5
2023-03-08T15:48:47.887Z,0.4
2023-03-08T15:49:56.557Z,0.4
2023-03-08T15:51:05.245Z,0.2
2023-03-08T15:52:14.896Z,0.2
2023-03-08T15:53:34.780Z,0.8
2023-03-08T15:54:35.198Z,1
2023-03-08T15:55:44.874Z,0.5
2023-03-08T15:56:54.625Z,0.5
2023-03-08T15:58:04.312Z,0.5
2023-03-08T15:59:13.961Z,0.5
2023-03-08T16:00:23.639Z,0.7
2023-03-08T16:01:33.422Z,0.6
2023-03-08T16:02:43.037Z,0.6